Time;durP1;ratioP1;P1;durP2;ratioP2;P2;SDS_P1;SDS_P2;PMS_P1;PMS_P2;Temp;Humidity;BMP_temperature;BMP_pressure;BME280_temperature;BME280_humidity;BME280_pressure;Samples;Min_cycle;Max_cycle;Signal;HPM_P1;HPM_P2
2023/11/10 00:02:27;;;;;;;0.08;0.08;;;;;;;7.98;94.45;99133.41;5011667;28;20677;-82
2023/11/10 00:04:53;;;;;;;0.73;0.10;;;;;;;8.03;94.56;99141.97;5004887;28;20037;-81
2023/11/10 00:07:20;;;;;;;0.20;0.10;;;;;;;8.04;93.66;99141.09;5019877;28;20061;-77
2023/11/10 00:09:47;;;;;;;0.17;0.00;;;;;;;7.99;93.92;99117.75;5012078;28;20046;-77
2023/11/10 00:12:14;;;;;;;0.00;0.00;;;;;;;7.89;94.35;99134.50;5005129;28;20138;-80
2023/11/10 00:14:41;;;;;;;0.30;0.10;;;;;;;7.86;94.32;99126.72;5015427;28;20048;-77
2023/11/10 00:17:10;;;;;;;0.60;0.10;;;;;;;7.83;94.73;99134.63;4996443;28;20042;-78
2023/11/10 00:19:42;;;;;;;0.45;0.00;;;;;;;7.89;94.70;99134.50;4999715;28;20048;-78
2023/11/10 00:22:09;;;;;;;1.35;0.20;;;;;;;7.84;93.96;99126.75;5003652;28;20359;-77
2023/11/10 00:24:40;;;;;;;0.00;0.00;;;;;;;7.85;94.07;99127.63;5015203;28;20040;-78
2023/11/10 00:27:09;;;;;;;1.00;0.20;;;;;;;7.85;93.50;99127.63;4997691;28;20042;-78
2023/11/10 00:29:40;;;;;;;0.30;0.10;;;;;;;7.88;93.97;99127.56;4999529;28;20409;-80
2023/11/10 00:32:12;;;;;;;1.38;0.30;;;;;;;7.84;93.75;99118.94;5014524;28;20073;-79
2023/11/10 00:34:39;;;;;;;1.20;0.10;;;;;;;7.79;94.43;99136.44;5017622;28;20542;-83
2023/11/10 00:37:08;;;;;;;2.13;0.32;;;;;;;7.77;94.45;99128.66;4997402;28;20072;-81
2023/11/10 00:39:35;;;;;;;0.47;0.10;;;;;;;7.77;94.86;99131.25;5001720;28;20474;-83
2023/11/10 00:42:02;;;;;;;0.95;0.10;;;;;;;7.79;94.47;99128.63;5013134;28;20545;-79
2023/11/10 00:44:29;;;;;;;0.20;0.10;;;;;;;7.82;94.96;99136.34;5020380;28;20121;-80
2023/11/10 00:46:56;;;;;;;0.10;0.10;;;;;;;7.79;94.59;99128.63;4987058;28;20049;-80
2023/11/10 00:49:25;;;;;;;0.20;0.13;;;;;;;7.84;94.92;99141.56;5022577;28;20038;-80
2023/11/10 00:51:51;;;;;;;2.17;0.10;;;;;;;7.75;95.04;99130.41;4999545;28;20599;-77
2023/11/10 00:54:18;;;;;;;1.75;0.20;;;;;;;7.76;95.00;99139.13;4999453;28;20568;-77
2023/11/10 00:56:45;;;;;;;2.38;0.38;;;;;;;7.79;95.21;99141.63;4998480;28;20129;-79
2023/11/10 00:59:15;;;;;;;1.80;0.15;;;;;;;7.74;96.18;99133.94;5017283;28;20049;-78
2023/11/10 01:01:44;;;;;;;1.35;0.20;;;;;;;7.69;96.28;99135.78;5008629;28;20153;-77
2023/11/10 01:04:11;;;;;;;0.77;0.22;;;;;;;7.72;96.12;99132.25;4995012;28;20042;-78
2023/11/10 01:06:38;;;;;;;0.68;0.20;;;;;;;7.69;96.36;99130.59;5018613;28;20117;-77
2023/11/10 01:09:04;;;;;;;2.10;1.50;;;;;;;7.72;96.57;99124.44;5000747;28;20122;-77
2023/11/10 01:11:34;;;;;;;0.70;0.20;;;;;;;7.71;96.73;99126.19;5004306;28;20470;-81
2023/11/10 01:14:00;;;;;;;0.60;0.20;;;;;;;7.67;96.36;99119.31;4996601;28;20050;-79
2023/11/10 01:16:28;;;;;;;0.30;0.10;;;;;;;7.63;96.28;99120.28;5002663;28;20293;-79
2023/11/10 01:18:55;;;;;;;1.50;0.17;;;;;;;7.52;96.60;99123.13;5000035;28;20708;-80
2023/11/10 01:21:22;;;;;;;0.65;0.20;;;;;;;7.46;97.36;99131.06;5017780;28;20218;-78
2023/11/10 01:23:50;;;;;;;0.77;0.17;;;;;;;7.42;97.29;99126.81;5011208;28;20050;-77
2023/11/10 01:26:17;;;;;;;0.90;0.40;;;;;;;7.37;96.65;99124.28;4998203;28;20478;-76
2023/11/10 01:28:43;;;;;;;3.83;0.40;;;;;;;7.35;96.81;99113.03;5015997;28;20789;-81
2023/11/10 01:31:10;;;;;;;0.60;0.57;;;;;;;7.34;96.68;99118.28;5011618;28;20038;-77
2023/11/10 01:33:36;;;;;;;1.42;0.32;;;;;;;7.32;96.87;99120.06;4997666;28;20136;-79
2023/11/10 01:36:03;;;;;;;1.48;0.22;;;;;;;7.27;96.68;99108.03;4993889;28;20046;-76
2023/11/10 01:38:30;;;;;;;0.20;0.20;;;;;;;7.27;96.84;99117.56;5001824;28;20121;-76
2023/11/10 01:40:56;;;;;;;0.50;0.50;;;;;;;7.28;96.99;99127.94;5000054;28;20589;-78
2023/11/10 01:43:24;;;;;;;1.45;0.20;;;;;;;7.26;97.23;99128.84;4999764;28;20402;-76
2023/11/10 01:45:51;;;;;;;0.30;0.30;;;;;;;7.23;96.73;99121.97;4980857;28;20057;-80
2023/11/10 01:48:19;;;;;;;1.38;0.60;;;;;;;7.24;96.48;99113.25;4984583;28;20635;-74
2023/11/10 01:50:45;;;;;;;0.55;0.25;;;;;;;7.26;96.55;99110.63;4999436;28;20038;-83
2023/11/10 01:53:12;;;;;;;4.15;0.32;;;;;;;7.21;96.98;99118.53;4982245;28;20065;-81
2023/11/10 01:55:39;;;;;;;1.17;0.43;;;;;;;7.16;97.31;99104.75;5018968;28;20429;-78
2023/11/10 01:58:08;;;;;;;1.45;0.30;;;;;;;7.17;97.13;99116.03;4997237;28;20508;-78
2023/11/10 02:00:37;;;;;;;2.42;0.52;;;;;;;7.17;97.46;99103.88;4997986;28;20047;-81
2023/11/10 02:03:07;;;;;;;1.98;0.68;;;;;;;7.15;97.54;99095.25;4997486;28;20045;-77
2023/11/10 02:05:35;;;;;;;0.95;0.40;;;;;;;7.14;97.16;99096.13;5000550;28;20109;-78
2023/11/10 02:08:03;;;;;;;0.47;0.40;;;;;;;7.08;97.53;99102.31;5000637;28;20135;-77
2023/11/10 02:10:30;;;;;;;1.75;0.40;;;;;;;7.08;97.25;99104.06;4985078;28;20152;-79
2023/11/10 02:12:58;;;;;;;3.15;0.55;;;;;;;7.06;97.57;99103.22;4994672;28;20054;-79
2023/11/10 02:15:27;;;;;;;1.38;0.30;;;;;;;7.07;97.45;99098.00;4998995;28;20116;-79
2023/11/10 02:17:54;;;;;;;1.15;0.50;;;;;;;7.01;97.91;99085.09;4987211;28;20143;-75
2023/11/10 02:20:21;;;;;;;2.28;0.73;;;;;;;7.01;98.51;99076.44;5001620;28;20050;-80
2023/11/10 02:22:49;;;;;;;1.98;0.22;;;;;;;6.98;98.52;99066.94;5017193;28;20789;-79
2023/11/10 02:25:17;;;;;;;2.30;1.15;;;;;;;6.95;98.73;99065.28;5000099;28;20532;-80
2023/11/10 02:27:44;;;;;;;2.22;0.40;;;;;;;6.93;98.84;99059.22;4995188;28;20498;-79
2023/11/10 02:30:12;;;;;;;1.08;0.63;;;;;;;6.91;98.98;99049.75;5017132;28;20160;-80
2023/11/10 02:32:39;;;;;;;2.60;0.50;;;;;;;6.90;98.45;99050.66;4994062;28;20104;-78
2023/11/10 02:35:08;;;;;;;7.85;0.60;;;;;;;6.88;98.62;99053.28;4999354;28;20550;-78
2023/11/10 02:37:36;;;;;;;0.93;0.60;;;;;;;6.90;98.62;99061.06;4999395;28;20054;-80
2023/11/10 02:40:05;;;;;;;1.42;0.70;;;;;;;6.90;98.30;99053.25;5001257;28;20866;-77
2023/11/10 02:42:31;;;;;;;1.20;0.43;;;;;;;6.89;98.12;99054.97;4983747;28;20050;-78
2023/11/10 02:44:58;;;;;;;6.50;0.68;;;;;;;6.92;97.64;99054.06;4997196;28;20615;-76
2023/11/10 02:47:28;;;;;;;1.65;0.30;;;;;;;6.93;98.07;99056.63;5014935;28;20105;-81
2023/11/10 02:49:54;;;;;;;2.65;0.40;;;;;;;6.94;97.45;99057.50;4983947;28;20049;-79
2023/11/10 02:52:24;;;;;;;0.82;0.38;;;;;;;6.95;96.74;99061.81;5016980;28;20040;-80
2023/11/10 02:54:53;;;;;;;2.67;0.82;;;;;;;6.98;96.80;99061.75;4982150;28;20062;-81
2023/11/10 02:57:20;;;;;;;0.77;0.20;;;;;;;6.97;96.24;99064.38;5010264;28;20552;-77
2023/11/10 02:59:49;;;;;;;4.28;0.40;;;;;;;6.94;96.66;99060.94;4995055;28;20061;-77
2023/11/10 03:02:15;;;;;;;0.77;0.60;;;;;;;6.94;96.67;99060.94;4999285;28;20609;-83
2023/11/10 03:04:42;;;;;;;0.47;0.32;;;;;;;6.94;97.27;99060.09;5014647;28;20070;-77
2023/11/10 03:07:10;;;;;;;2.03;0.50;;;;;;;6.89;97.54;99064.53;4983934;28;20375;-77
2023/11/10 03:09:36;;;;;;;4.35;0.57;;;;;;;6.83;98.55;99055.13;5017511;28;20379;-79
2023/11/10 03:12:03;;;;;;;1.90;0.50;;;;;;;6.77;99.02;99066.47;5000702;28;20417;-76
2023/11/10 03:14:30;;;;;;;2.22;0.50;;;;;;;6.75;99.17;99065.66;5016624;28;20042;-79
2023/11/10 03:16:59;;;;;;;1.55;0.57;;;;;;;6.73;99.24;99057.03;4999791;28;20050;-80
2023/11/10 03:19:27;;;;;;;1.42;0.40;;;;;;;6.73;99.44;99049.22;5000151;28;20045;-76
2023/11/10 03:21:53;;;;;;;2.63;0.30;;;;;;;6.68;100.00;99040.66;5009737;28;20432;-79
2023/11/10 03:24:20;;;;;;;1.92;0.55;;;;;;;6.64;100.00;99048.56;4997688;28;20085;-77
2023/11/10 03:26:47;;;;;;;0.40;0.40;;;;;;;6.61;99.76;99055.50;5015253;28;20552;-77
2023/11/10 03:29:13;;;;;;;2.25;0.88;;;;;;;6.61;100.00;99052.06;4996581;28;20045;-79
2023/11/10 03:31:40;;;;;;;1.02;0.40;;;;;;;6.61;100.00;99060.72;4999573;28;20684;-78
2023/11/10 03:34:08;;;;;;;1.50;0.32;;;;;;;6.59;99.89;99070.28;5010854;28;20042;-80
2023/11/10 03:36:35;;;;;;;0.82;0.30;;;;;;;6.61;99.55;99055.50;4992048;28;20060;-80
2023/11/10 03:39:03;;;;;;;1.90;0.93;;;;;;;6.65;99.25;99053.72;5011738;28;20049;-78
2023/11/10 03:41:29;;;;;;;3.05;0.40;;;;;;;6.59;99.40;99049.47;5013347;28;20065;-80
2023/11/10 03:43:56;;;;;;;3.85;0.30;;;;;;;6.62;99.24;99051.16;4999334;28;20054;-77
2023/11/10 03:46:22;;;;;;;2.55;0.40;;;;;;;6.62;98.59;99051.16;4995847;28;20042;-79
2023/11/10 03:48:49;;;;;;;2.83;0.40;;;;;;;6.59;99.20;99049.47;5010297;28;20049;-79
2023/11/10 03:51:15;;;;;;;1.33;0.47;;;;;;;6.55;99.36;99052.19;5013946;28;20042;-77
2023/11/10 03:53:42;;;;;;;2.05;0.50;;;;;;;6.55;99.25;99046.97;5003156;28;20050;-78
2023/11/10 03:56:09;;;;;;;3.10;0.40;;;;;;;6.59;98.74;99059.88;4997102;28;20042;-78
2023/11/10 03:58:36;;;;;;;2.80;0.22;;;;;;;6.61;98.81;99058.13;5003914;28;20049;-80
2023/11/10 04:01:07;;;;;;;7.15;2.83;;;;;;;6.58;99.57;99050.38;4987146;28;20052;-79
2023/11/10 04:03:33;;;;;;;2.28;0.30;;;;;;;6.58;98.94;99059.91;5015812;28;20123;-81
2023/11/10 04:06:00;;;;;;;0.95;0.95;;;;;;;6.58;98.53;99065.97;5001596;28;21107;-76
2023/11/10 04:08:27;;;;;;;2.70;0.40;;;;;;;6.60;98.73;99056.41;4996050;28;20077;-80
2023/11/10 04:10:53;;;;;;;4.10;0.82;;;;;;;6.57;99.27;99060.78;5016700;28;20096;-81
2023/11/10 04:13:20;;;;;;;1.85;0.63;;;;;;;6.58;98.22;99057.31;4994430;28;20050;-75
2023/11/10 04:15:47;;;;;;;0.80;0.40;;;;;;;6.60;98.51;99058.16;5005446;28;20050;-85
2023/11/10 04:18:13;;;;;;;12.63;2.38;;;;;;;6.52;98.62;99053.09;5019043;28;20087;-81
2023/11/10 04:20:40;;;;;;;2.83;0.43;;;;;;;6.49;98.69;99060.91;5002610;28;20046;-76
2023/11/10 04:23:07;;;;;;;2.85;0.55;;;;;;;6.51;99.14;99061.75;4984492;28;20095;-80
2023/11/10 04:25:34;;;;;;;2.42;0.75;;;;;;;6.50;98.83;99061.78;5003163;28;20045;-80
2023/11/10 04:28:01;;;;;;;7.63;0.65;;;;;;;6.51;98.81;99053.97;5020861;28;20525;-80
2023/11/10 04:30:29;;;;;;;2.85;0.50;;;;;;;6.61;98.08;99054.66;5005279;28;20632;-77
2023/11/10 04:32:56;;;;;;;2.67;0.30;;;;;;;6.62;97.68;99049.44;4998176;28;20161;-77
2023/11/10 04:35:25;;;;;;;2.15;0.63;;;;;;;6.60;98.43;99042.56;5015756;28;20129;-76
2023/11/10 04:37:52;;;;;;;1.23;0.50;;;;;;;6.56;98.66;99028.75;5000935;28;20062;-79
2023/11/10 04:40:19;;;;;;;1.42;0.20;;;;;;;6.65;97.06;99034.66;5021589;28;20114;-76
2023/11/10 04:42:45;;;;;;;2.95;0.30;;;;;;;6.64;97.76;99036.41;5003092;28;20052;-77
2023/11/10 04:45:12;;;;;;;4.88;0.22;;;;;;;6.57;97.99;99040.88;4994572;28;20061;-79
2023/11/10 04:47:39;;;;;;;0.70;0.30;;;;;;;6.49;98.05;99044.47;5000574;28;20046;-77
2023/11/10 04:50:06;;;;;;;3.75;0.30;;;;;;;6.47;98.66;99049.72;5002825;28;20140;-79
2023/11/10 04:52:33;;;;;;;2.78;0.22;;;;;;;6.56;98.97;99053.91;5000559;28;20058;-78
2023/11/10 04:55:00;;;;;;;2.70;0.45;;;;;;;6.67;98.45;99062.34;5001543;28;20127;-79
2023/11/10 04:57:27;;;;;;;1.42;0.20;;;;;;;6.77;97.41;99061.28;5019299;28;20143;-80
2023/11/10 04:59:54;;;;;;;0.35;0.10;;;;;;;6.85;97.74;99062.88;4985278;28;20077;-75
2023/11/10 05:02:22;;;;;;;2.70;0.45;;;;;;;6.86;96.68;99059.41;5017269;28;20077;-78
2023/11/10 05:04:50;;;;;;;3.05;0.98;;;;;;;6.85;96.88;99058.53;5001321;28;20041;-84
2023/11/10 05:07:17;;;;;;;6.20;0.40;;;;;;;6.82;96.74;99043.00;5002874;28;20046;-80
2023/11/10 05:09:44;;;;;;;1.95;0.35;;;;;;;6.77;96.97;99055.22;4984345;28;20135;-77
2023/11/10 05:12:10;;;;;;;3.60;0.30;;;;;;;6.72;97.56;99057.91;5002654;28;20066;-78
2023/11/10 05:14:39;;;;;;;1.17;0.20;;;;;;;6.68;97.74;99050.22;4999685;28;20038;-82
2023/11/10 05:17:07;;;;;;;3.30;0.52;;;;;;;6.66;98.18;99062.38;5004074;28;20098;-79
2023/11/10 05:19:33;;;;;;;2.28;0.30;;;;;;;6.59;98.39;99057.28;5000444;28;20081;-79
2023/11/10 05:22:00;;;;;;;0.77;0.65;;;;;;;6.55;99.57;99055.63;5010028;28;20045;-83
2023/11/10 05:24:26;;;;;;;3.60;1.33;;;;;;;6.52;99.82;99050.50;4984838;28;20046;-79
2023/11/10 05:26:53;;;;;;;1.17;0.10;;;;;;;6.55;99.80;99053.03;4993161;28;20041;-80
2023/11/10 05:29:20;;;;;;;0.75;0.40;;;;;;;6.59;99.67;99052.06;5010915;28;20259;-80
2023/11/10 05:31:46;;;;;;;3.42;0.80;;;;;;;6.64;99.17;99054.59;4997344;28;20048;-77
2023/11/10 05:34:16;;;;;;;1.17;0.40;;;;;;;6.68;99.17;99038.06;4991816;28;20204;-80
2023/11/10 05:36:44;;;;;;;2.40;0.40;;;;;;;6.73;99.31;99041.41;5015638;28;20057;-80
2023/11/10 05:39:11;;;;;;;0.70;0.50;;;;;;;6.73;98.94;99036.22;4992965;28;20458;-79
2023/11/10 05:41:40;;;;;;;0.57;0.57;;;;;;;6.74;98.59;99040.53;5009362;28;20050;-80
2023/11/10 05:44:10;;;;;;;0.30;0.20;;;;;;;6.70;98.85;99040.63;4979983;28;20078;-77
2023/11/10 05:46:38;;;;;;;1.00;0.30;;;;;;;6.60;99.21;99034.75;4998326;28;20627;-81
2023/11/10 05:49:06;;;;;;;4.95;0.50;;;;;;;6.53;99.71;99038.34;4994468;28;20056;-77
2023/11/10 05:51:33;;;;;;;0.85;0.30;;;;;;;6.45;100.00;99046.28;4995795;28;20049;-76
2023/11/10 05:54:00;;;;;;;1.38;0.50;;;;;;;6.38;100.00;99047.28;4998262;28;20041;-78
2023/11/10 05:56:26;;;;;;;0.65;0.25;;;;;;;6.39;100.00;99049.84;4996911;28;20052;-80
2023/11/10 05:58:53;;;;;;;2.30;0.30;;;;;;;6.42;100.00;99051.53;4997393;28;20046;-77
2023/11/10 06:01:24;;;;;;;1.80;0.40;;;;;;;6.48;100.00;99054.03;5012454;28;20060;-76
2023/11/10 06:03:51;;;;;;;3.05;0.40;;;;;;;6.50;100.00;99054.84;5001571;28;20442;-82
2023/11/10 06:06:24;;;;;;;5.05;0.63;;;;;;;6.51;100.00;99047.91;4991939;28;20076;-79
2023/11/10 06:08:52;;;;;;;1.58;0.30;;;;;;;6.51;100.00;99048.75;4998054;28;20038;-83
2023/11/10 06:11:21;;;;;;;1.27;0.40;;;;;;;6.50;100.00;99060.03;5001343;28;20045;-77
2023/11/10 06:13:49;;;;;;;2.75;0.70;;;;;;;6.51;100.00;99048.75;4977782;28;20054;-79
2023/11/10 06:16:17;;;;;;;1.55;0.32;;;;;;;6.52;100.00;99050.50;5015853;28;20046;-76
2023/11/10 06:18:45;;;;;;;1.88;0.57;;;;;;;6.53;100.00;99060.00;4998599;28;20052;-76
2023/11/10 06:21:12;;;;;;;2.92;0.68;;;;;;;6.53;100.00;99065.22;4996623;28;20102;-78
2023/11/10 06:23:39;;;;;;;1.58;0.30;;;;;;;6.51;100.00;99069.56;5009764;28;20042;-78
2023/11/10 06:26:10;;;;;;;1.05;0.30;;;;;;;6.50;100.00;99067.00;4998298;28;20851;-78
2023/11/10 06:28:37;;;;;;;20.23;1.98;;;;;;;6.50;100.00;99067.84;5017647;28;20725;-79
2023/11/10 06:31:04;;;;;;;1.27;0.40;;;;;;;6.54;100.00;99074.69;5000062;28;20663;-77
2023/11/10 06:33:30;;;;;;;1.20;0.10;;;;;;;6.55;100.00;99066.03;4994180;28;20636;-78
2023/11/10 06:35:57;;;;;;;3.70;0.40;;;;;;;6.59;100.00;99072.03;4995040;28;20050;-76
2023/11/10 06:38:24;;;;;;;1.15;0.52;;;;;;;6.63;100.00;99068.47;4995261;28;20438;-76
2023/11/10 06:40:51;;;;;;;1.60;0.40;;;;;;;6.62;100.00;99069.34;4999017;28;20112;-78
2023/11/10 06:43:18;;;;;;;3.08;0.25;;;;;;;6.65;100.00;99077.13;5000270;28;20520;-78
2023/11/10 06:45:44;;;;;;;2.83;0.40;;;;;;;6.65;100.00;99081.44;4999997;28;20470;-78
2023/11/10 06:48:11;;;;;;;0.52;0.10;;;;;;;6.67;100.00;99075.34;5018195;28;20050;-79
2023/11/10 06:50:38;;;;;;;1.00;0.90;;;;;;;6.75;100.00;99080.41;5001959;28;20041;-80
2023/11/10 06:53:04;;;;;;;1.42;0.50;;;;;;;6.76;100.00;99079.50;5003080;28;20401;-77
2023/11/10 06:55:31;;;;;;;1.80;0.75;;;;;;;6.79;100.00;99079.44;5003011;28;20069;-80
2023/11/10 06:57:58;;;;;;;0.75;0.25;;;;;;;6.82;100.00;99076.81;4980193;28;20115;-79
2023/11/10 07:00:26;;;;;;;1.48;0.88;;;;;;;6.85;100.00;99071.53;5014848;28;20061;-78
2023/11/10 07:02:56;;;;;;;4.88;0.65;;;;;;;6.88;100.00;99073.22;4992788;28;20042;-83
2023/11/10 07:05:29;;;;;;;8.48;1.05;;;;;;;6.92;100.00;99080.94;4992347;28;20042;-81
2023/11/10 07:07:57;;;;;;;3.15;0.80;;;;;;;6.98;100.00;99082.56;4995823;28;20537;-81
2023/11/10 07:10:23;;;;;;;2.72;0.35;;;;;;;7.05;100.00;99085.91;4998062;28;20042;-81
2023/11/10 07:12:50;;;;;;;5.30;0.80;;;;;;;7.12;100.00;99083.16;4999481;28;20505;-78
2023/11/10 07:15:16;;;;;;;2.33;1.05;;;;;;;7.17;100.00;99085.66;4978352;28;20042;-82
2023/11/10 07:17:43;;;;;;;1.85;1.10;;;;;;;7.20;100.00;99083.00;5009458;28;20474;-78
2023/11/10 07:20:11;;;;;;;3.20;1.27;;;;;;;7.22;99.05;99082.94;4994316;28;20121;-78
2023/11/10 07:22:39;;;;;;;3.13;1.33;;;;;;;7.28;99.34;99086.28;4975442;28;20057;-79
2023/11/10 07:25:08;;;;;;;4.80;0.75;;;;;;;7.32;98.94;99089.69;4996282;28;20100;-76
2023/11/10 07:27:35;;;;;;;1.33;0.30;;;;;;;7.34;98.83;99089.66;5024499;28;20485;-79
2023/11/10 07:30:01;;;;;;;3.35;0.20;;;;;;;7.40;98.56;99098.19;5021115;28;20108;-79
2023/11/10 07:32:29;;;;;;;1.92;0.50;;;;;;;7.39;98.09;99095.63;5006203;28;20101;-82
2023/11/10 07:34:59;;;;;;;1.85;0.40;;;;;;;7.47;97.85;99098.06;5010765;28;20046;-82
2023/11/10 07:37:34;;;;;;;0.90;0.40;;;;;;;7.51;97.19;99091.91;5025771;28;20393;-76
2023/11/10 07:40:04;;;;;;;2.47;0.40;;;;;;;7.55;96.41;99096.16;5008511;28;20052;-79
2023/11/10 07:42:36;;;;;;;1.98;0.45;;;;;;;7.49;96.92;99097.13;5007814;28;20172;-76
2023/11/10 07:45:05;;;;;;;1.17;0.20;;;;;;;7.56;96.39;99097.84;5020174;28;20038;-80
2023/11/10 07:47:36;;;;;;;1.25;0.45;;;;;;;7.54;97.00;99092.69;5006924;28;20095;-81
2023/11/10 07:50:03;;;;;;;0.65;0.32;;;;;;;7.57;97.94;99107.38;5017741;28;20057;-82
2023/11/10 07:52:30;;;;;;;2.17;0.50;;;;;;;7.59;98.61;99108.22;5019616;28;20044;-78
2023/11/10 07:54:57;;;;;;;3.05;1.17;;;;;;;7.59;100.00;99111.69;5007061;28;20056;-77
2023/11/10 07:57:23;;;;;;;1.23;0.30;;;;;;;7.62;100.00;99108.16;5007513;28;20048;-81
2023/11/10 07:59:51;;;;;;;2.00;0.40;;;;;;;7.58;100.00;99106.50;4994192;28;20093;-79
2023/11/10 08:02:18;;;;;;;2.63;1.13;;;;;;;7.64;100.00;99103.78;5005848;28;20074;-77
2023/11/10 08:04:45;;;;;;;0.20;0.20;;;;;;;7.63;100.00;99102.06;5007890;28;20038;-81
2023/11/10 08:07:11;;;;;;;2.70;0.30;;;;;;;7.65;100.00;99108.06;5004979;28;20504;-80
2023/11/10 08:09:38;;;;;;;2.85;0.30;;;;;;;7.67;100.00;99108.91;5008168;28;20041;-81
2023/11/10 08:12:05;;;;;;;0.68;0.40;;;;;;;7.70;100.00;99105.38;5007291;28;20081;-78
2023/11/10 08:14:32;;;;;;;0.60;0.22;;;;;;;7.70;100.00;99108.81;5006019;28;20136;-78
2023/11/10 08:16:58;;;;;;;1.70;0.40;;;;;;;7.69;100.00;99109.75;5005300;28;20128;-77
2023/11/10 08:19:25;;;;;;;1.85;0.40;;;;;;;7.68;100.00;99113.22;5030994;28;20045;-77
2023/11/10 08:21:52;;;;;;;1.45;0.63;;;;;;;7.66;100.00;99114.16;5024651;28;20042;-84
2023/11/10 08:24:18;;;;;;;3.15;0.85;;;;;;;7.72;100.00;99116.63;5007339;28;20487;-80
2023/11/10 08:26:45;;;;;;;1.05;0.55;;;;;;;7.76;100.00;99128.69;5009368;28;20053;-80
2023/11/10 08:29:13;;;;;;;1.77;0.70;;;;;;;7.79;100.00;99131.22;5024751;28;20128;-78
2023/11/10 08:31:40;;;;;;;2.67;0.35;;;;;;;7.84;100.00;99126.75;5002470;28;20056;-78
2023/11/10 08:34:06;;;;;;;1.92;0.43;;;;;;;7.78;100.00;99127.78;5020259;28;20129;-80
2023/11/10 08:36:34;;;;;;;0.45;0.40;;;;;;;7.77;100.00;99133.03;5017165;28;20458;-78
2023/11/10 08:39:01;;;;;;;3.20;0.55;;;;;;;7.77;100.00;99127.81;5016947;28;20074;-78
2023/11/10 08:41:27;;;;;;;1.73;0.35;;;;;;;7.69;100.00;99133.19;5014663;28;20536;-80
2023/11/10 08:43:54;;;;;;;1.52;0.38;;;;;;;7.73;100.00;99131.34;4997073;28;20564;-79
2023/11/10 08:46:21;;;;;;;0.40;0.30;;;;;;;7.72;100.00;99127.91;5000556;28;20042;-76
2023/11/10 08:48:50;;;;;;;0.73;0.35;;;;;;;7.76;99.99;99131.31;5006461;28;20069;-77
2023/11/10 08:51:21;;;;;;;3.85;0.45;;;;;;;7.76;99.71;99131.31;5005357;28;20730;-78
2023/11/10 08:53:47;;;;;;;6.28;0.57;;;;;;;7.81;99.66;99132.06;5005714;28;20049;-79
2023/11/10 08:56:14;;;;;;;2.67;0.40;;;;;;;7.88;99.67;99132.78;4999454;28;20784;-84
2023/11/10 08:58:41;;;;;;;0.65;0.40;;;;;;;7.91;99.44;99128.34;5005734;28;20052;-78
2023/11/10 09:01:07;;;;;;;2.45;0.30;;;;;;;7.99;99.36;99137.72;5017898;28;20045;-85
2023/11/10 09:03:34;;;;;;;0.65;0.40;;;;;;;8.11;98.92;99129.66;5021225;28;20043;-83
2023/11/10 09:06:00;;;;;;;2.85;0.93;;;;;;;8.15;98.47;99131.28;5021859;28;20125;-80
2023/11/10 09:08:27;;;;;;;1.95;1.70;;;;;;;8.22;98.29;99127.63;5026026;28;20050;-78
2023/11/10 09:10:53;;;;;;;2.85;1.33;;;;;;;8.18;98.13;99128.59;5007524;28;20049;-80
2023/11/10 09:13:20;;;;;;;1.30;0.90;;;;;;;8.18;98.27;99133.81;5023093;28;20609;-77
2023/11/10 09:15:46;;;;;;;1.80;0.38;;;;;;;8.19;98.35;99132.91;5020762;28;20064;-81
2023/11/10 09:18:13;;;;;;;2.20;0.68;;;;;;;8.09;98.12;99127.06;4990267;28;20398;-79
2023/11/10 09:20:39;;;;;;;2.55;0.30;;;;;;;8.22;98.05;99132.00;5024417;28;20441;-77
2023/11/10 09:23:06;;;;;;;1.35;0.60;;;;;;;8.24;97.94;99132.81;5020435;28;20041;-82
2023/11/10 09:25:32;;;;;;;2.67;0.50;;;;;;;8.27;97.69;99125.75;5025837;28;20045;-76
2023/11/10 09:28:00;;;;;;;1.90;0.70;;;;;;;8.32;97.57;99133.50;5027678;28;20131;-83
2023/11/10 09:30:26;;;;;;;5.40;0.50;;;;;;;8.33;96.50;99140.41;5023076;28;20038;-80
2023/11/10 09:32:55;;;;;;;0.50;0.30;;;;;;;8.34;96.40;99134.28;5015556;28;20042;-79
2023/11/10 09:35:23;;;;;;;0.85;0.40;;;;;;;8.48;95.59;99139.22;5004343;28;20124;-79
2023/11/10 09:37:49;;;;;;;1.77;0.40;;;;;;;8.47;95.74;99141.84;5006047;28;20104;-80
2023/11/10 09:40:19;;;;;;;2.95;0.50;;;;;;;8.45;95.11;99147.09;5008833;28;20111;-81
2023/11/10 09:42:45;;;;;;;2.50;1.35;;;;;;;8.45;95.22;99141.88;5007863;28;20045;-82
2023/11/10 09:45:14;;;;;;;4.85;0.55;;;;;;;8.49;94.69;99147.91;5007380;28;20597;-79
2023/11/10 09:47:41;;;;;;;4.43;0.38;;;;;;;8.54;94.52;99144.28;5006589;28;20069;-80
2023/11/10 09:50:11;;;;;;;3.13;0.65;;;;;;;8.50;94.77;99149.59;5006387;28;20046;-79
2023/11/10 09:52:41;;;;;;;0.80;0.45;;;;;;;8.57;94.55;99144.19;5000089;28;20157;-81
2023/11/10 09:55:10;;;;;;;1.83;0.35;;;;;;;8.65;94.21;99153.59;5020906;28;20092;-79
2023/11/10 09:57:38;;;;;;;6.35;0.95;;;;;;;8.69;94.08;99153.47;5018170;28;20045;-77
2023/11/10 10:00:12;;;;;;;6.13;1.25;;;;;;;8.73;93.33;99156.84;5004286;28;20050;-78
2023/11/10 10:02:40;;;;;;;1.63;0.43;;;;;;;8.73;93.49;99139.44;5019462;28;20120;-77
2023/11/10 10:05:10;;;;;;;0.55;0.30;;;;;;;8.70;93.74;99139.53;5024201;28;20042;-77
2023/11/10 10:07:38;;;;;;;0.85;0.40;;;;;;;8.84;92.80;99141.78;5020142;28;20042;-78
2023/11/10 10:10:09;;;;;;;1.90;0.55;;;;;;;8.98;91.33;99133.56;5002866;28;20041;-79
2023/11/10 10:12:38;;;;;;;2.35;0.50;;;;;;;9.01;90.76;99135.25;5013912;28;20061;-81
2023/11/10 10:15:05;;;;;;;2.90;1.10;;;;;;;8.94;90.70;99129.34;4985407;28;20483;-78
2023/11/10 10:17:37;;;;;;;0.95;0.15;;;;;;;9.10;90.39;99137.63;4999441;28;20100;-79
2023/11/10 10:20:09;;;;;;;0.70;0.32;;;;;;;9.08;90.32;99142.88;5016177;28;20156;-76
2023/11/10 10:22:36;;;;;;;3.45;0.40;;;;;;;8.94;91.20;99145.00;4985921;28;20141;-84
2023/11/10 10:25:04;;;;;;;1.85;0.30;;;;;;;8.88;91.09;99146.03;4997865;28;20103;-82
2023/11/10 10:27:30;;;;;;;6.60;0.75;;;;;;;8.89;92.23;99139.03;4999801;28;20046;-77
2023/11/10 10:29:59;;;;;;;2.65;0.50;;;;;;;8.83;92.74;99140.06;5018736;28;20132;-78
2023/11/10 10:32:25;;;;;;;1.35;0.60;;;;;;;8.91;92.87;99140.72;4999764;28;20111;-80
2023/11/10 10:34:52;;;;;;;1.98;0.73;;;;;;;8.93;93.23;99136.31;4998921;28;20096;-83
2023/11/10 10:37:19;;;;;;;1.58;0.88;;;;;;;8.97;92.39;99134.50;5002481;28;20452;-83
2023/11/10 10:39:46;;;;;;;0.50;0.43;;;;;;;8.94;92.12;99131.94;5020649;28;20045;-78
2023/11/10 10:42:15;;;;;;;1.75;0.90;;;;;;;9.06;92.15;99133.38;5003295;28;20095;-77
2023/11/10 10:44:45;;;;;;;1.42;0.47;;;;;;;9.16;91.54;99128.75;5017373;28;20621;-78
2023/11/10 10:47:13;;;;;;;4.43;0.73;;;;;;;9.24;91.19;99126.78;5000273;28;20037;-80
2023/11/10 10:49:44;;;;;;;3.90;0.43;;;;;;;9.28;90.40;99117.97;4979848;28;20491;-81
2023/11/10 10:52:10;;;;;;;0.98;0.50;;;;;;;9.38;90.21;99118.56;5013774;28;20038;-79
2023/11/10 10:54:39;;;;;;;1.90;0.68;;;;;;;9.60;89.90;99113.56;4982632;28;20050;-82
2023/11/10 10:57:06;;;;;;;0.60;0.50;;;;;;;9.46;88.35;99115.72;5014763;28;20095;-81
2023/11/10 10:59:36;;;;;;;3.67;1.23;;;;;;;9.38;89.79;99122.03;5016174;28;20038;-81
2023/11/10 11:02:04;;;;;;;2.25;0.68;;;;;;;9.33;88.71;99108.25;5001381;28;20045;-84
2023/11/10 11:05:05;;;;;;;1.63;0.70;;;;;;;9.42;88.37;99114.97;4999584;28;20166;-79
2023/11/10 11:07:59;;;;;;;0.93;0.50;;;;;;;9.29;88.85;99114.44;5002116;28;20042;-82
2023/11/10 11:11:24;;;;;;;2.97;0.55;;;;;;;9.17;89.27;99120.88;5018573;28;20045;-77
2023/11/10 11:14:37;;;;;;;2.17;0.90;;;;;;;9.17;87.98;99109.59;4986759;28;20062;-82
2023/11/10 11:17:18;;;;;;;1.38;0.88;;;;;;;9.36;87.82;99112.53;5014775;28;20136;-84
2023/11/10 11:19:45;;;;;;;0.38;0.32;;;;;;;9.33;87.36;99104.78;4998306;28;20178;-80
2023/11/10 11:22:14;;;;;;;1.40;0.70;;;;;;;9.27;87.74;99111.03;5001441;28;20089;-78
2023/11/10 11:24:44;;;;;;;0.40;0.40;;;;;;;9.39;87.39;99112.44;4999409;28;20112;-80
2023/11/10 11:27:11;;;;;;;1.70;0.55;;;;;;;9.33;87.24;99099.56;5014944;28;20050;-78
2023/11/10 11:29:40;;;;;;;5.35;0.90;;;;;;;9.29;87.04;99104.00;4997650;28;20038;-79
2023/11/10 11:32:12;;;;;;;0.50;0.50;;;;;;;9.41;86.21;99103.66;5017814;28;20043;-76
2023/11/10 11:34:40;;;;;;;0.70;0.52;;;;;;;9.46;85.69;99111.34;4995104;28;20088;-78
2023/11/10 11:37:07;;;;;;;2.33;0.60;;;;;;;9.55;84.95;99105.00;4995353;28;20048;-79
2023/11/10 11:39:34;;;;;;;3.47;1.02;;;;;;;9.52;83.78;99110.34;5009658;28;20124;-78
2023/11/10 11:42:06;;;;;;;2.83;1.08;;;;;;;9.63;83.75;99104.78;5025613;28;20061;-78
2023/11/10 11:44:35;;;;;;;3.05;0.70;;;;;;;9.75;83.81;99113.13;5003686;28;20108;-82